Time;durP1;ratioP1;P1;durP2;ratioP2;P2;SDS_P1;SDS_P2;PMS_P1;PMS_P2;Temp;Humidity;BMP_temperature;BMP_pressure;BME280_temperature;BME280_humidity;BME280_pressure;Samples;Min_cycle;Max_cycle;Signal;HPM_P1;HPM_P2
2021/08/16 00:00:38;;;;;;;7.07;3.80;;;;;;;15.90;100.00;100539.97;4914215;29;20185;-81
2021/08/16 00:03:04;;;;;;;5.47;3.78;;;;;;;15.89;100.00;100554.19;4908103;29;20417;-80
2021/08/16 00:05:29;;;;;;;7.75;3.55;;;;;;;15.89;100.00;100585.13;4906655;29;20020;-81
2021/08/16 00:07:56;;;;;;;12.35;3.95;;;;;;;15.90;100.00;100581.50;4884134;29;20056;-81
2021/08/16 00:10:22;;;;;;;12.75;4.05;;;;;;;15.84;100.00;100551.31;4885795;29;20050;-80
2021/08/16 00:12:48;;;;;;;9.43;4.30;;;;;;;15.83;100.00;100527.69;4903750;29;20042;-80
2021/08/16 00:15:14;;;;;;;8.88;4.35;;;;;;;15.79;100.00;100537.81;4890855;29;20402;-79
2021/08/16 00:17:39;;;;;;;8.82;4.05;;;;;;;15.74;100.00;100534.91;4903447;29;20119;-79
2021/08/16 00:20:08;;;;;;;8.70;4.30;;;;;;;15.72;100.00;100526.31;4891213;29;20177;-81
2021/08/16 00:22:34;;;;;;;7.30;4.13;;;;;;;15.66;100.00;100527.06;4898513;29;20688;-80
2021/08/16 00:24:59;;;;;;;9.10;4.22;;;;;;;15.58;100.00;100531.44;4891082;29;20031;-81
2021/08/16 00:27:25;;;;;;;10.00;4.40;;;;;;;15.56;100.00;100530.81;4910732;29;20583;-81
2021/08/16 00:29:50;;;;;;;10.35;4.53;;;;;;;15.56;100.00;100530.81;4922876;29;20119;-80
2021/08/16 00:32:15;;;;;;;10.23;4.63;;;;;;;15.51;100.00;100522.59;4878292;29;20047;-81
2021/08/16 00:34:41;;;;;;;9.40;4.65;;;;;;;15.53;100.00;100533.00;4903494;29;20557;-81
2021/08/16 00:37:06;;;;;;;12.63;4.55;;;;;;;15.51;100.00;100541.09;4883732;29;20033;-81
2021/08/16 00:39:32;;;;;;;13.38;4.60;;;;;;;15.55;100.00;100574.09;4874899;29;20035;-82
2021/08/16 00:41:58;;;;;;;9.35;4.85;;;;;;;15.57;100.00;100566.78;4920634;29;20120;-83
2021/08/16 00:44:24;;;;;;;10.23;4.60;;;;;;;15.55;100.00;100536.28;4899374;29;20037;-82
2021/08/16 00:46:50;;;;;;;9.88;4.57;;;;;;;15.51;100.00;100532.34;4921653;29;20043;-81
2021/08/16 00:49:16;;;;;;;8.38;4.50;;;;;;;15.49;100.00;100515.88;4884678;29;20116;-81
2021/08/16 00:51:41;;;;;;;8.57;4.53;;;;;;;15.39;100.00;100505.59;4892070;29;20135;-82
2021/08/16 00:54:08;;;;;;;7.47;4.43;;;;;;;15.39;100.00;100518.81;4870746;29;20040;-82
2021/08/16 00:56:37;;;;;;;11.93;4.43;;;;;;;15.37;100.00;100528.75;4912312;29;20043;-80
2021/08/16 00:59:05;;;;;;;10.05;4.47;;;;;;;15.36;100.00;100533.19;4921914;29;20114;-81
2021/08/16 01:01:30;;;;;;;14.15;4.93;;;;;;;15.23;100.00;100527.72;4923945;29;20177;-83
2021/08/16 01:03:57;;;;;;;11.38;4.80;;;;;;;15.31;100.00;100548.78;4894402;29;20516;-81
2021/08/16 01:06:22;;;;;;;6.57;4.20;;;;;;;15.31;100.00;100540.00;4884219;29;20058;-83
2021/08/16 01:08:49;;;;;;;9.90;5.00;;;;;;;15.26;100.00;100518.63;4899739;29;20037;-79
2021/08/16 01:11:16;;;;;;;7.65;4.22;;;;;;;15.21;100.00;100515.69;4901606;29;20108;-81
2021/08/16 01:13:43;;;;;;;8.10;5.05;;;;;;;15.13;100.00;100509.50;4901687;29;20067;-82
2021/08/16 01:16:09;;;;;;;10.05;5.05;;;;;;;15.08;100.00;100519.78;4883753;29;20115;-81
2021/08/16 01:18:36;;;;;;;9.57;4.55;;;;;;;15.06;100.00;100516.50;4882940;29;20618;-79
2021/08/16 01:21:04;;;;;;;8.70;4.20;;;;;;;15.02;100.00;100515.22;4877364;29;20050;-81
2021/08/16 01:23:30;;;;;;;8.30;4.18;;;;;;;14.95;100.00;100507.19;4897338;29;20032;-79
2021/08/16 01:25:55;;;;;;;11.43;4.72;;;;;;;14.89;100.00;100500.00;4899608;29;20039;-80
2021/08/16 01:28:22;;;;;;;7.05;4.47;;;;;;;14.89;100.00;100501.84;4920031;29;20036;-81
2021/08/16 01:30:54;;;;;;;9.13;5.30;;;;;;;14.87;100.00;100504.66;4877227;29;20321;-81
2021/08/16 01:33:20;;;;;;;10.63;4.77;;;;;;;14.82;100.00;100517.56;4904679;29;20071;-83
2021/08/16 01:35:46;;;;;;;9.98;5.10;;;;;;;14.81;100.00;100512.50;4900651;29;20072;-79
2021/08/16 01:38:12;;;;;;;12.32;4.88;;;;;;;14.72;100.00;100507.28;4916966;29;20068;-81
2021/08/16 01:40:37;;;;;;;11.02;4.57;;;;;;;14.68;100.00;100506.00;4885277;29;20040;-82
2021/08/16 01:43:03;;;;;;;8.27;4.43;;;;;;;14.57;100.00;100491.41;4898288;29;20043;-80
2021/08/16 01:45:28;;;;;;;15.55;5.13;;;;;;;14.57;100.00;100491.41;4878845;29;20068;-81
2021/08/16 01:47:54;;;;;;;10.15;4.63;;;;;;;14.48;100.00;100486.34;4918596;29;20035;-81
2021/08/16 01:50:19;;;;;;;10.38;4.75;;;;;;;14.50;100.00;100489.63;4882478;29;20044;-81
2021/08/16 01:52:45;;;;;;;11.23;4.85;;;;;;;14.50;100.00;100489.63;4915540;29;20111;-78
2021/08/16 01:55:10;;;;;;;11.32;4.57;;;;;;;14.45;100.00;100484.03;4892858;29;20043;-80
2021/08/16 01:57:36;;;;;;;9.18;5.10;;;;;;;14.30;100.00;100476.13;4886056;29;20032;-80
2021/08/16 02:00:03;;;;;;;9.88;5.13;;;;;;;14.32;100.00;100484.66;4904040;29;20044;-79
2021/08/16 02:02:37;;;;;;;10.35;4.85;;;;;;;14.24;100.00;100480.28;4902484;29;20039;-77
2021/08/16 02:05:03;;;;;;;9.38;5.20;;;;;;;14.25;100.00;100481.91;4904565;29;20255;-80
2021/08/16 02:07:29;;;;;;;11.20;4.90;;;;;;;14.20;100.00;100482.44;4883605;29;20028;-79
2021/08/16 02:09:54;;;;;;;11.15;4.75;;;;;;;14.18;100.00;100476.53;4905420;29;20050;-78
2021/08/16 02:12:20;;;;;;;7.85;4.78;;;;;;;14.15;100.00;100476.06;4918664;29;20039;-80
2021/08/16 02:14:45;;;;;;;12.27;4.78;;;;;;;14.14;100.00;100477.03;4886841;29;20036;-81
2021/08/16 02:17:10;;;;;;;12.50;4.88;;;;;;;14.11;100.00;100478.22;4890604;29;20097;-80
2021/08/16 02:19:37;;;;;;;10.50;4.90;;;;;;;14.07;100.00;100473.47;4890151;29;20039;-81
2021/08/16 02:22:02;;;;;;;10.73;5.55;;;;;;;14.05;100.00;100478.91;4871988;29;20110;-83
2021/08/16 02:24:28;;;;;;;7.50;4.18;;;;;;;13.98;100.00;100470.91;4880376;29;20490;-83
2021/08/16 02:26:53;;;;;;;6.30;4.63;;;;;;;13.97;100.00;100481.63;4898473;29;20302;-83
2021/08/16 02:29:19;;;;;;;9.77;4.40;;;;;;;13.93;100.00;100478.50;4869461;29;20063;-83
2021/08/16 02:31:45;;;;;;;9.80;4.72;;;;;;;13.96;100.00;100482.63;4888241;29;20846;-84
2021/08/16 02:34:10;;;;;;;6.93;4.53;;;;;;;13.81;100.00;100467.53;4899906;29;20084;-82
2021/08/16 02:36:36;;;;;;;8.93;4.78;;;;;;;13.87;100.00;100476.56;4903338;29;20040;-82
2021/08/16 02:39:02;;;;;;;9.38;4.55;;;;;;;13.92;100.00;100483.94;4886117;29;20043;-82
2021/08/16 02:41:28;;;;;;;7.80;4.28;;;;;;;13.91;100.00;100480.50;4907289;29;20494;-81
2021/08/16 02:43:53;;;;;;;10.85;4.65;;;;;;;13.89;100.00;100468.50;4898871;29;20091;-81
2021/08/16 02:46:19;;;;;;;11.48;5.03;;;;;;;13.88;100.00;100475.59;4895881;29;20024;-80
2021/08/16 02:48:46;;;;;;;7.78;5.13;;;;;;;13.74;100.00;100453.41;4888966;29;20601;-82
2021/08/16 02:51:11;;;;;;;13.35;4.75;;;;;;;13.77;100.00;100466.25;4889448;29;20115;-83
2021/08/16 02:53:37;;;;;;;10.10;5.05;;;;;;;13.76;100.00;100471.69;4908010;29;20127;-81
2021/08/16 02:56:03;;;;;;;7.32;4.85;;;;;;;13.78;100.00;100462.59;4907218;29;20050;-80
2021/08/16 02:58:28;;;;;;;10.55;4.85;;;;;;;13.75;100.00;100446.31;4898708;29;20047;-78
2021/08/16 03:00:53;;;;;;;11.52;4.82;;;;;;;13.81;100.00;100454.38;4896832;29;20392;-81
2021/08/16 03:03:19;;;;;;;10.95;4.90;;;;;;;13.82;100.00;100444.63;4907439;29;20050;-81
2021/08/16 03:05:45;;;;;;;9.68;5.00;;;;;;;13.86;100.00;100445.91;4885949;29;20033;-83
2021/08/16 03:08:10;;;;;;;11.20;4.88;;;;;;;13.89;100.00;100442.13;4881571;29;20043;-81
2021/08/16 03:10:36;;;;;;;8.68;5.18;;;;;;;13.87;100.00;100437.03;4905254;29;20494;-81
2021/08/16 03:13:01;;;;;;;9.73;4.90;;;;;;;13.92;100.00;100432.06;4906991;29;20043;-79
2021/08/16 03:15:27;;;;;;;9.77;5.13;;;;;;;13.97;100.00;100419.16;4886846;29;20494;-80
2021/08/16 03:17:52;;;;;;;10.00;4.90;;;;;;;13.99;100.00;100438.28;4907460;29;20107;-82
2021/08/16 03:20:18;;;;;;;9.60;5.03;;;;;;;13.93;100.00;100431.03;4926066;29;20032;-78
2021/08/16 03:22:44;;;;;;;8.45;5.00;;;;;;;13.97;100.00;100429.69;4900767;29;20135;-80
2021/08/16 03:25:11;;;;;;;12.25;5.60;;;;;;;14.05;100.00;100420.09;4875627;29;20031;-80
2021/08/16 03:27:37;;;;;;;9.93;5.40;;;;;;;14.12;100.00;100415.75;4878330;29;20046;-81
2021/08/16 03:30:05;;;;;;;12.15;5.88;;;;;;;14.19;100.00;100411.41;4883012;29;20430;-80
2021/08/16 03:32:31;;;;;;;14.07;6.43;;;;;;;14.25;100.00;100404.59;4874506;29;20406;-81
2021/08/16 03:34:56;;;;;;;12.45;6.38;;;;;;;14.26;100.00;100395.66;4881228;29;20032;-81
2021/08/16 03:37:22;;;;;;;12.00;6.43;;;;;;;14.32;100.00;100401.06;4856914;29;20044;-81
2021/08/16 03:39:47;;;;;;;20.95;7.18;;;;;;;14.33;100.00;100400.03;4905405;29;20060;-80
2021/08/16 03:42:13;;;;;;;12.00;6.70;;;;;;;14.39;100.00;100399.34;4899107;29;20098;-78
2021/08/16 03:44:38;;;;;;;13.43;6.68;;;;;;;14.47;100.00;100389.72;4900870;29;20031;-80
2021/08/16 03:47:06;;;;;;;13.70;7.47;;;;;;;14.51;100.00;100389.16;4870294;29;20490;-80
2021/08/16 03:49:31;;;;;;;15.25;7.35;;;;;;;14.54;100.00;100395.88;4899885;29;20038;-80
2021/08/16 03:51:57;;;;;;;14.20;7.63;;;;;;;14.47;100.00;100374.69;4863426;29;20526;-81
2021/08/16 03:54:22;;;;;;;16.38;8.15;;;;;;;14.54;100.00;100382.69;4882194;29;20040;-82
2021/08/16 03:56:48;;;;;;;12.60;8.00;;;;;;;14.67;100.00;100388.19;4916795;29;20123;-79
2021/08/16 03:59:13;;;;;;;17.58;7.68;;;;;;;14.71;100.00;100383.38;4896289;29;20040;-80
2021/08/16 04:01:39;;;;;;;13.70;7.50;;;;;;;14.74;100.00;100378.53;4905951;29;20074;-80
2021/08/16 04:04:04;;;;;;;15.07;8.10;;;;;;;14.75;100.00;100377.56;4903293;29;20096;-78
2021/08/16 04:06:30;;;;;;;14.88;7.63;;;;;;;14.85;100.00;100373.81;4896790;29;20161;-82
2021/08/16 04:08:55;;;;;;;14.00;7.72;;;;;;;14.86;100.00;100384.22;4880903;29;20098;-79
2021/08/16 04:11:21;;;;;;;13.43;7.82;;;;;;;14.89;100.00;100381.19;4913288;29;20099;-79
2021/08/16 04:13:46;;;;;;;16.75;7.72;;;;;;;14.91;100.00;100383.66;4891006;29;20036;-81
2021/08/16 04:16:12;;;;;;;15.70;8.00;;;;;;;14.94;100.00;100383.28;4889399;29;20071;-80
2021/08/16 04:18:37;;;;;;;12.52;7.68;;;;;;;14.92;100.00;100372.09;4903630;29;20043;-79
2021/08/16 04:21:03;;;;;;;15.82;7.57;;;;;;;15.02;100.00;100375.25;4898074;29;20040;-80
2021/08/16 04:23:29;;;;;;;15.65;8.38;;;;;;;15.04;100.00;100383.00;4884410;29;20039;-81
2021/08/16 04:25:54;;;;;;;14.18;7.63;;;;;;;15.06;100.00;100384.44;4869881;29;20043;-79
2021/08/16 04:28:20;;;;;;;18.30;8.73;;;;;;;15.09;100.00;100378.00;4875646;29;20399;-78
2021/08/16 04:30:46;;;;;;;22.38;8.45;;;;;;;15.13;100.00;100373.97;4890748;29;20040;-78
2021/08/16 04:33:12;;;;;;;18.35;8.82;;;;;;;15.12;100.00;100375.78;4888017;29;20064;-80
2021/08/16 04:35:39;;;;;;;20.42;9.35;;;;;;;15.10;100.00;100369.84;4889114;29;20044;-80
2021/08/16 04:38:04;;;;;;;18.42;8.75;;;;;;;15.13;100.00;100371.31;4900761;29;20027;-80
2021/08/16 04:40:30;;;;;;;22.67;9.90;;;;;;;15.16;100.00;100373.56;4897264;29;20036;-78
2021/08/16 04:42:55;;;;;;;19.05;8.65;;;;;;;15.12;100.00;100367.03;4899261;29;20118;-79
2021/08/16 04:45:21;;;;;;;23.92;9.93;;;;;;;15.10;100.00;100367.22;4895843;29;20043;-80
2021/08/16 04:47:46;;;;;;;24.00;10.50;;;;;;;15.11;100.00;100368.06;4901482;29;20494;-79
2021/08/16 04:50:14;;;;;;;24.58;10.88;;;;;;;15.07;100.00;100350.91;4917647;29;20091;-81
2021/08/16 04:52:40;;;;;;;25.73;11.65;;;;;;;15.12;100.00;100359.91;4873311;29;20060;-81
2021/08/16 04:55:06;;;;;;;23.60;11.45;;;;;;;15.12;100.00;100361.75;4905513;29;20499;-79
2021/08/16 04:57:33;;;;;;;24.00;11.98;;;;;;;15.16;100.00;100357.72;4889955;29;20487;-79
2021/08/16 04:59:59;;;;;;;22.45;12.32;;;;;;;15.15;100.00;100350.81;4904340;29;20032;-79
2021/08/16 05:02:25;;;;;;;24.52;13.30;;;;;;;15.07;100.00;100343.00;4884635;29;20039;-80
2021/08/16 05:04:58;;;;;;;30.13;13.77;;;;;;;15.19;100.00;100344.16;4903214;29;20043;-78
2021/08/16 05:07:23;;;;;;;30.88;13.55;;;;;;;15.23;100.00;100350.69;4902262;29;20032;-79
2021/08/16 05:09:50;;;;;;;27.35;13.30;;;;;;;15.28;100.00;100340.41;4885353;29;20094;-81
2021/08/16 05:12:16;;;;;;;26.92;13.52;;;;;;;15.29;100.00;100336.72;4923162;29;20024;-79
2021/08/16 05:14:41;;;;;;;23.38;13.27;;;;;;;15.39;100.00;100341.75;4880980;29;20552;-79
2021/08/16 05:17:07;;;;;;;23.52;12.48;;;;;;;15.43;100.00;100350.94;4908248;29;20036;-76
2021/08/16 05:19:37;;;;;;;21.85;13.15;;;;;;;15.52;100.00;100341.03;4920024;29;20036;-78
2021/08/16 05:22:09;;;;;;;29.25;12.85;;;;;;;15.64;100.00;100338.72;4875269;29;20047;-80
2021/08/16 05:24:36;;;;;;;26.80;13.38;;;;;;;15.63;100.00;100337.88;4900962;29;20087;-80
2021/08/16 05:27:02;;;;;;;25.75;13.57;;;;;;;15.59;100.00;100331.34;4886296;29;20036;-80
2021/08/16 05:29:28;;;;;;;25.55;13.57;;;;;;;15.68;100.00;100334.69;4921721;29;20123;-80
2021/08/16 05:31:54;;;;;;;24.80;13.40;;;;;;;15.72;100.00;100341.22;4930388;29;20042;-79
2021/08/16 05:34:20;;;;;;;24.30;12.88;;;;;;;15.75;100.00;100348.81;4913929;29;20039;-80
2021/08/16 05:36:45;;;;;;;33.75;14.23;;;;;;;15.75;100.00;100341.69;4865178;29;20585;-79
2021/08/16 05:39:11;;;;;;;22.65;14.60;;;;;;;15.71;100.00;100345.69;4881802;29;20039;-80
2021/08/16 05:41:36;;;;;;;26.92;15.20;;;;;;;15.82;100.00;100343.56;4880880;29;20147;-79
2021/08/16 05:44:02;;;;;;;27.48;14.95;;;;;;;15.86;100.00;100347.47;4867043;29;20043;-79
2021/08/16 05:46:29;;;;;;;31.45;14.98;;;;;;;15.93;100.00;100346.50;4879377;29;20108;-80
2021/08/16 05:48:54;;;;;;;28.35;14.18;;;;;;;15.99;100.00;100349.41;4883836;29;20039;-80
2021/08/16 05:51:19;;;;;;;28.20;13.82;;;;;;;16.06;100.00;100351.09;4910271;29;20074;-79
2021/08/16 05:53:45;;;;;;;26.30;14.02;;;;;;;16.15;100.00;100342.00;4884463;29;20040;-82
2021/08/16 05:56:10;;;;;;;23.02;14.48;;;;;;;16.19;100.00;100334.50;4896421;29;20040;-80
2021/08/16 05:58:36;;;;;;;26.58;12.98;;;;;;;16.31;100.00;100338.25;4882159;29;20071;-80
2021/08/16 06:01:01;;;;;;;25.88;13.88;;;;;;;16.40;100.00;100348.69;4883742;29;20540;-79
2021/08/16 06:03:27;;;;;;;21.25;12.52;;;;;;;16.54;100.00;100355.69;4869756;29;20035;-84
2021/08/16 06:05:52;;;;;;;23.25;11.68;;;;;;;16.55;100.00;100357.31;4907480;29;20491;-82
2021/08/16 06:08:18;;;;;;;22.52;11.15;;;;;;;16.57;100.00;100360.59;4902924;29;20574;-82
2021/08/16 06:10:43;;;;;;;20.65;10.20;;;;;;;16.61;100.00;100348.59;4896438;29;20040;-82
2021/08/16 06:13:09;;;;;;;25.92;12.10;;;;;;;16.55;100.00;100367.91;4869576;29;20048;-82
2021/08/16 06:15:34;;;;;;;22.50;10.65;;;;;;;16.53;100.00;100354.84;4900433;29;20036;-82
2021/08/16 06:18:00;;;;;;;19.17;10.27;;;;;;;16.46;100.00;100355.84;4899962;29;20135;-81
2021/08/16 06:20:25;;;;;;;22.80;10.27;;;;;;;16.38;100.00;100359.47;4906895;29;20028;-81
2021/08/16 06:22:51;;;;;;;27.63;11.50;;;;;;;16.29;100.00;100353.53;4888864;29;20040;-81
2021/08/16 06:25:16;;;;;;;19.35;10.18;;;;;;;16.32;100.00;100353.09;4884365;29;20058;-82
2021/08/16 06:27:42;;;;;;;27.13;10.65;;;;;;;16.31;100.00;100353.28;4873356;29;20036;-83
2021/08/16 06:30:08;;;;;;;20.83;10.65;;;;;;;16.37;100.00;100351.72;4872047;29;20136;-83
2021/08/16 06:32:35;;;;;;;20.95;9.57;;;;;;;16.45;100.00;100357.69;4888012;29;20058;-81
2021/08/16 06:35:01;;;;;;;28.15;11.05;;;;;;;16.44;100.00;100352.56;4910988;29;20070;-82
2021/08/16 06:37:27;;;;;;;24.08;10.00;;;;;;;16.37;100.00;100357.00;4881556;29;20040;-82
2021/08/16 06:39:52;;;;;;;23.58;9.63;;;;;;;16.43;100.00;100353.59;4913565;29;20151;-83
2021/08/16 06:42:19;;;;;;;27.02;10.70;;;;;;;16.39;100.00;100360.25;4902104;29;20044;-82
2021/08/16 06:44:44;;;;;;;26.83;10.02;;;;;;;16.41;100.00;100352.97;4885162;29;20122;-82
2021/08/16 06:47:10;;;;;;;20.88;10.13;;;;;;;16.51;100.00;100354.25;4898751;29;20494;-83
2021/08/16 06:49:36;;;;;;;20.75;9.82;;;;;;;16.58;100.00;100348.19;4889924;29;20048;-81
2021/08/16 06:52:02;;;;;;;25.85;10.35;;;;;;;16.70;100.00;100359.84;4892880;29;20079;-80
2021/08/16 06:54:29;;;;;;;27.95;10.25;;;;;;;16.79;100.00;100350.72;4886338;29;20223;-85
2021/08/16 06:56:54;;;;;;;23.40;9.68;;;;;;;16.80;100.00;100357.69;4874968;29;20048;-81
2021/08/16 06:59:20;;;;;;;25.35;10.18;;;;;;;16.80;100.00;100354.19;4900756;29;20062;-84
2021/08/16 07:01:45;;;;;;;25.00;10.60;;;;;;;16.79;100.00;100357.88;4885492;29;20136;-83
2021/08/16 07:04:11;;;;;;;23.38;10.25;;;;;;;16.68;100.00;100349.44;4924672;29;20035;-82
2021/08/16 07:06:36;;;;;;;24.23;9.80;;;;;;;16.73;100.00;100357.63;4899424;29;20031;-82
2021/08/16 07:09:02;;;;;;;18.75;9.10;;;;;;;16.76;100.00;100360.91;4900418;29;20035;-82
2021/08/16 07:11:27;;;;;;;18.50;9.93;;;;;;;16.70;100.00;100351.91;4885296;29;20040;-84
2021/08/16 07:13:53;;;;;;;24.65;10.52;;;;;;;16.81;100.00;100363.78;4911859;29;20503;-82
2021/08/16 07:16:20;;;;;;;25.48;9.80;;;;;;;16.78;100.00;100345.63;4884105;29;20032;-81
2021/08/16 07:18:46;;;;;;;21.70;8.90;;;;;;;16.82;100.00;100350.38;4903859;29;20120;-83
2021/08/16 07:21:11;;;;;;;22.75;9.45;;;;;;;16.90;100.00;100368.75;4905435;29;20036;-79
2021/08/16 07:23:37;;;;;;;16.25;8.57;;;;;;;16.96;100.00;100371.63;4881464;29;20059;-82
2021/08/16 07:26:04;;;;;;;22.95;8.85;;;;;;;16.87;100.00;100361.16;4885495;29;20055;-81
2021/08/16 07:28:30;;;;;;;22.27;8.40;;;;;;;16.86;100.00;100353.44;4896845;29;20575;-82
2021/08/16 07:30:57;;;;;;;24.70;9.73;;;;;;;16.99;100.00;100364.09;4880070;29;20035;-82
2021/08/16 07:33:23;;;;;;;26.67;8.98;;;;;;;16.99;100.00;100366.75;4878736;29;20037;-80
2021/08/16 07:35:49;;;;;;;19.75;9.05;;;;;;;16.95;100.00;100357.53;4852733;29;20088;-83
2021/08/16 07:38:14;;;;;;;19.13;8.82;;;;;;;16.95;100.00;100362.03;4865638;29;20376;-80
2021/08/16 07:40:40;;;;;;;18.52;8.90;;;;;;;16.87;100.00;100366.47;4898202;29;20090;-80
2021/08/16 07:43:06;;;;;;;20.17;8.32;;;;;;;16.85;100.00;100359.75;4897422;29;20042;-80
2021/08/16 07:45:31;;;;;;;21.70;9.75;;;;;;;16.92;100.00;100368.53;4897244;29;20059;-80
2021/08/16 07:47:57;;;;;;;24.38;9.65;;;;;;;17.02;100.00;100362.88;4901966;29;20028;-81
2021/08/16 07:50:23;;;;;;;20.20;8.80;;;;;;;17.10;100.00;100363.53;4881124;29;20529;-83
2021/08/16 07:52:49;;;;;;;27.63;9.18;;;;;;;17.30;100.00;100365.41;4897060;29;20494;-83
2021/08/16 07:55:14;;;;;;;18.10;8.68;;;;;;;17.54;99.88;100360.56;4881282;29;20054;-82
2021/08/16 07:57:40;;;;;;;19.80;8.10;;;;;;;17.81;99.53;100369.38;4902868;29;20039;-80
2021/08/16 08:00:10;;;;;;;20.92;7.60;;;;;;;18.02;96.90;100357.78;4902031;29;20036;-80
2021/08/16 08:02:45;;;;;;;22.13;7.45;;;;;;;18.09;94.18;100334.72;4866477;29;20113;-81
2021/08/16 08:05:13;;;;;;;23.95;7.93;;;;;;;18.38;95.02;100346.69;4882785;29;20123;-81
2021/08/16 08:07:40;;;;;;;20.70;7.75;;;;;;;18.58;93.72;100348.50;4883204;29;20119;-83
2021/08/16 08:10:07;;;;;;;17.77;7.25;;;;;;;18.65;92.25;100347.47;4901009;29;20597;-82
2021/08/16 08:12:33;;;;;;;19.35;7.35;;;;;;;18.68;90.42;100352.38;4907293;29;20052;-83
2021/08/16 08:14:58;;;;;;;19.20;7.15;;;;;;;18.73;91.81;100350.91;4895183;29;20036;-82
2021/08/16 08:17:24;;;;;;;17.63;6.63;;;;;;;18.65;90.95;100352.78;4893985;29;20039;-81
2021/08/16 08:19:50;;;;;;;14.73;6.15;;;;;;;18.38;92.14;100365.28;4882057;29;20067;-83
2021/08/16 08:22:17;;;;;;;17.20;6.07;;;;;;;18.19;94.58;100369.59;4892168;29;20063;-82
2021/08/16 08:24:43;;;;;;;13.32;5.88;;;;;;;18.00;94.06;100362.47;4885511;29;20036;-84
2021/08/16 08:27:09;;;;;;;19.15;5.78;;;;;;;17.85;93.70;100368.78;4901674;29;20059;-81
2021/08/16 08:29:34;;;;;;;14.95;5.40;;;;;;;17.90;91.08;100363.69;4907129;29;20066;-83
2021/08/16 08:32:00;;;;;;;17.40;5.50;;;;;;;18.06;90.55;100361.66;4882481;29;20036;-81
2021/08/16 08:34:28;;;;;;;14.60;5.68;;;;;;;18.03;92.46;100349.63;4922162;29;20039;-80
2021/08/16 08:36:54;;;;;;;16.20;5.22;;;;;;;18.36;89.54;100355.91;4886203;29;20056;-81
2021/08/16 08:39:19;;;;;;;17.02;5.63;;;;;;;18.62;85.70;100339.91;4918802;29;20516;-82
2021/08/16 08:41:46;;;;;;;16.10;5.32;;;;;;;18.90;90.73;100348.63;4885165;29;20135;-82
2021/08/16 08:44:13;;;;;;;14.13;5.28;;;;;;;19.03;87.65;100364.53;4884997;29;20038;-83
2021/08/16 08:46:42;;;;;;;11.95;4.80;;;;;;;19.02;87.17;100361.06;4883534;29;20031;-81
2021/08/16 08:49:08;;;;;;;15.23;4.72;;;;;;;18.96;88.76;100361.06;4904852;29;20032;-80
2021/08/16 08:51:37;;;;;;;12.93;5.07;;;;;;;19.01;88.58;100364.72;4908375;29;20126;-81
2021/08/16 08:54:06;;;;;;;13.57;4.80;;;;;;;18.97;87.41;100363.53;4875868;29;20257;-81
2021/08/16 08:56:32;;;;;;;13.50;4.82;;;;;;;18.95;86.79;100351.44;4882131;29;20571;-82
2021/08/16 08:58:58;;;;;;;15.32;4.82;;;;;;;18.97;89.54;100365.38;4881606;29;20033;-83
2021/08/16 09:01:25;;;;;;;13.05;4.50;;;;;;;18.96;90.50;100372.50;4883036;29;20035;-81
2021/08/16 09:03:52;;;;;;;16.50;4.75;;;;;;;19.05;87.92;100371.25;4909201;29;20480;-82
2021/08/16 09:06:32;;;;;;;13.20;4.68;;;;;;;18.89;86.05;100365.59;4897366;29;20028;-83
2021/08/16 09:08:58;;;;;;;13.95;4.60;;;;;;;18.62;88.91;100365.66;4885179;29;20409;-82
2021/08/16 09:11:25;;;;;;;12.65;4.57;;;;;;;18.38;89.44;100367.13;4908178;29;20039;-81
2021/08/16 09:13:55;;;;;;;19.48;4.80;;;;;;;18.17;91.61;100366.34;4884433;29;20486;-83
2021/08/16 09:16:22;;;;;;;14.13;4.43;;;;;;;17.93;94.99;100366.97;4907147;29;20043;-82
2021/08/16 09:18:48;;;;;;;15.55;5.18;;;;;;;17.76;97.62;100363.84;4883217;29;20043;-83
2021/08/16 09:21:31;;;;;;;27.25;5.15;;;;;;;17.42;99.36;100366.47;4896881;29;20032;-81
2021/08/16 09:23:57;;;;;;;15.52;5.43;;;;;;;17.29;100.00;100371.72;4881708;29;20051;-82
2021/08/16 09:26:34;;;;;;;20.27;6.43;;;;;;;17.13;100.00;100370.25;4902869;29;20044;-81
2021/08/16 09:29:13;;;;;;;19.27;7.40;;;;;;;16.91;100.00;100370.38;4891293;29;20119;-81
2021/08/16 09:31:52;;;;;;;21.70;7.85;;;;;;;16.78;100.00;100364.97;4886748;29;20028;-82
2021/08/16 09:34:40;;;;;;;21.30;8.15;;;;;;;16.75;100.00;100370.69;4898944;29;20039;-83
2021/08/16 09:37:25;;;;;;;17.73;7.50;;;;;;;16.72;100.00;100368.41;4901158;29;20063;-82
2021/08/16 09:40:19;;;;;;;18.20;6.97;;;;;;;16.74;100.00;100369.03;4880022;29;20047;-82
2021/08/16 09:42:50;;;;;;;19.95;6.90;;;;;;;16.73;100.00;100372.72;4865764;29;20139;-82
2021/08/16 09:45:38;;;;;;;15.98;7.20;;;;;;;16.70;100.00;100375.72;4892790;29;20044;-81
2021/08/16 09:48:06;;;;;;;21.30;7.88;;;;;;;16.64;100.00;100363.28;4909339;29;20070;-82
2021/08/16 09:50:40;;;;;;;19.23;7.65;;;;;;;16.53;100.00;100372.59;4899884;29;20558;-82
2021/08/16 09:53:12;;;;;;;21.48;7.60;;;;;;;16.54;100.00;100375.03;4902428;29;20039;-82
2021/08/16 09:55:41;;;;;;;18.60;8.02;;;;;;;16.48;100.00;100359.94;4899977;29;20495;-83
2021/08/16 09:58:09;;;;;;;22.02;8.70;;;;;;;16.42;100.00;100363.34;4884160;29;20040;-81
2021/08/16 10:00:36;;;;;;;23.65;8.60;;;;;;;16.40;100.00;100364.56;4892483;29;20516;-82
2021/08/16 10:03:03;;;;;;;18.63;8.80;;;;;;;16.37;100.00;100364.94;4871650;29;20032;-82
2021/08/16 10:05:30;;;;;;;26.15;10.18;;;;;;;16.29;100.00;100358.81;4902351;29;20056;-82
2021/08/16 10:07:59;;;;;;;20.90;9.18;;;;;;;16.35;100.00;100365.97;4902009;29;20032;-83
2021/08/16 10:10:26;;;;;;;22.02;8.52;;;;;;;16.21;100.00;100356.28;4905698;29;20051;-82
2021/08/16 10:12:52;;;;;;;19.63;7.15;;;;;;;16.30;100.00;100360.44;4889100;29;20039;-82
2021/08/16 10:15:18;;;;;;;15.13;6.38;;;;;;;16.24;100.00;100369.16;4911911;29;20045;-84
2021/08/16 10:17:44;;;;;;;19.92;8.10;;;;;;;16.31;100.00;100375.31;4925820;29;20047;-81
2021/08/16 10:20:12;;;;;;;13.45;6.15;;;;;;;16.33;100.00;100380.38;4894821;29;20035;-81
2021/08/16 10:22:40;;;;;;;13.88;5.72;;;;;;;16.34;100.00;100382.03;4884143;29;20032;-81
2021/08/16 10:25:13;;;;;;;12.23;5.57;;;;;;;16.32;100.00;100382.22;4868762;29;20119;-81
2021/08/16 10:27:39;;;;;;;9.27;4.28;;;;;;;16.24;100.00;100378.91;4874753;29;20039;-80
2021/08/16 10:30:16;;;;;;;7.82;3.70;;;;;;;16.17;100.00;100391.28;4889437;29;20036;-80
2021/08/16 10:32:43;;;;;;;8.32;3.60;;;;;;;16.14;100.00;100405.69;4882849;29;20115;-80
2021/08/16 10:35:15;;;;;;;12.30;3.50;;;;;;;16.00;100.00;100393.38;4909498;29;20092;-79
2021/08/16 10:37:43;;;;;;;6.03;3.03;;;;;;;15.97;100.00;100391.91;4906317;29;20053;-81
2021/08/16 10:40:18;;;;;;;8.65;2.90;;;;;;;15.80;100.00;100401.13;4898080;29;20257;-80
2021/08/16 10:42:43;;;;;;;7.00;3.00;;;;;;;15.69;100.00;100391.81;4904086;29;20040;-81
2021/08/16 10:45:10;;;;;;;7.07;2.80;;;;;;;15.71;100.00;100403.88;4920997;29;20042;-79
2021/08/16 10:47:36;;;;;;;5.80;2.53;;;;;;;15.56;100.00;100411.84;4894824;29;20076;-80
2021/08/16 10:50:10;;;;;;;11.77;2.72;;;;;;;15.48;100.00;100411.97;4866770;29;20513;-80
2021/08/16 10:52:39;;;;;;;5.65;2.45;;;;;;;15.40;100.00;100406.78;4904141;29;20054;-79
2021/08/16 10:55:12;;;;;;;4.60;2.25;;;;;;;15.40;100.00;100409.44;4899582;29;20040;-79
2021/08/16 10:57:39;;;;;;;5.68;2.40;;;;;;;15.34;100.00;100408.34;4917287;29;20520;-80
2021/08/16 11:00:05;;;;;;;7.43;2.53;;;;;;;15.40;100.00;100403.34;4879805;29;20036;-80
2021/08/16 11:02:33;;;;;;;8.73;2.55;;;;;;;15.37;100.00;100399.25;4865654;29;20123;-80
2021/08/16 11:04:58;;;;;;;7.15;2.72;;;;;;;15.49;100.00;100395.09;4883086;29;20100;-80
2021/08/16 11:07:24;;;;;;;6.28;2.38;;;;;;;15.69;100.00;100410.34;4884190;29;20036;-80